sensor_id;sensor_type;location;lat;lon;timestamp;temperature;humidity
41469;DHT22;27206;47.032;15.484;2022-08-16T00:00:37;20.40;1.00
41469;DHT22;27206;47.032;15.484;2022-08-16T00:03:03;20.40;1.00
41469;DHT22;27206;47.032;15.484;2022-08-16T00:05:29;20.40;1.00
41469;DHT22;27206;47.032;15.484;2022-08-16T00:07:56;20.40;1.00
41469;DHT22;27206;47.032;15.484;2022-08-16T00:10:24;20.30;1.00
41469;DHT22;27206;47.032;15.484;2022-08-16T00:12:51;20.30;1.00
41469;DHT22;27206;47.032;15.484;2022-08-16T00:15:25;20.30;1.00
41469;DHT22;27206;47.032;15.484;2022-08-16T00:17:51;20.30;1.00
41469;DHT22;27206;47.032;15.484;2022-08-16T00:20:17;20.30;1.00
41469;DHT22;27206;47.032;15.484;2022-08-16T00:22:44;20.30;1.00
41469;DHT22;27206;47.032;15.484;2022-08-16T00:25:14;20.30;1.00
41469;DHT22;27206;47.032;15.484;2022-08-16T00:27:40;20.30;1.00
41469;DHT22;27206;47.032;15.484;2022-08-16T00:30:09;20.30;1.00
41469;DHT22;27206;47.032;15.484;2022-08-16T00:32:41;20.30;1.00
41469;DHT22;27206;47.032;15.484;2022-08-16T00:35:11;20.30;1.00
41469;DHT22;27206;47.032;15.484;2022-08-16T00:37:37;20.30;1.00
41469;DHT22;27206;47.032;15.484;2022-08-16T00:40:04;20.30;1.00
41469;DHT22;27206;47.032;15.484;2022-08-16T00:42:31;20.30;1.00
41469;DHT22;27206;47.032;15.484;2022-08-16T00:45:14;20.20;1.00
41469;DHT22;27206;47.032;15.484;2022-08-16T00:47:44;20.30;1.00
41469;DHT22;27206;47.032;15.484;2022-08-16T00:50:11;20.30;1.00
41469;DHT22;27206;47.032;15.484;2022-08-16T00:52:39;20.20;1.00
41469;DHT22;27206;47.032;15.484;2022-08-16T00:55:05;20.10;1.00
41469;DHT22;27206;47.032;15.484;2022-08-16T00:57:31;20.00;1.00
41469;DHT22;27206;47.032;15.484;2022-08-16T00:59:56;19.90;1.00
41469;DHT22;27206;47.032;15.484;2022-08-16T01:02:22;19.90;1.00
41469;DHT22;27206;47.032;15.484;2022-08-16T01:04:48;19.90;1.00
41469;DHT22;27206;47.032;15.484;2022-08-16T01:07:14;19.90;1.00
41469;DHT22;27206;47.032;15.484;2022-08-16T01:09:39;19.90;1.00
41469;DHT22;27206;47.032;15.484;2022-08-16T01:12:07;19.70;1.00
41469;DHT22;27206;47.032;15.484;2022-08-16T01:14:40;19.70;1.00
41469;DHT22;27206;47.032;15.484;2022-08-16T01:17:06;19.70;1.00
41469;DHT22;27206;47.032;15.484;2022-08-16T01:19:37;19.70;1.00
41469;DHT22;27206;47.032;15.484;2022-08-16T01:22:30;19.70;1.00
41469;DHT22;27206;47.032;15.484;2022-08-16T01:25:06;19.70;1.00
41469;DHT22;27206;47.032;15.484;2022-08-16T01:27:36;19.70;1.00
41469;DHT22;27206;47.032;15.484;2022-08-16T01:30:16;19.70;1.00
41469;DHT22;27206;47.032;15.484;2022-08-16T01:32:43;19.70;1.00
41469;DHT22;27206;47.032;15.484;2022-08-16T01:35:21;19.70;1.00
41469;DHT22;27206;47.032;15.484;2022-08-16T01:37:51;19.60;1.00
41469;DHT22;27206;47.032;15.484;2022-08-16T01:40:19;19.50;1.00
41469;DHT22;27206;47.032;15.484;2022-08-16T01:42:46;19.50;1.00
41469;DHT22;27206;47.032;15.484;2022-08-16T01:45:12;19.50;1.00
41469;DHT22;27206;47.032;15.484;2022-08-16T01:47:39;19.50;1.00
41469;DHT22;27206;47.032;15.484;2022-08-16T01:50:06;19.60;1.00
41469;DHT22;27206;47.032;15.484;2022-08-16T01:52:33;19.50;1.00
41469;DHT22;27206;47.032;15.484;2022-08-16T01:55:00;19.50;1.00
41469;DHT22;27206;47.032;15.484;2022-08-16T01:57:27;19.60;1.00
41469;DHT22;27206;47.032;15.484;2022-08-16T01:59:53;19.70;1.00
41469;DHT22;27206;47.032;15.484;2022-08-16T02:02:18;19.70;1.00
41469;DHT22;27206;47.032;15.484;2022-08-16T02:04:44;19.80;1.00
41469;DHT22;27206;47.032;15.484;2022-08-16T02:07:11;19.80;1.00
41469;DHT22;27206;47.032;15.484;2022-08-16T02:09:40;19.80;1.00
41469;DHT22;27206;47.032;15.484;2022-08-16T02:12:07;19.80;1.00
41469;DHT22;27206;47.032;15.484;2022-08-16T02:14:35;19.90;1.00
41469;DHT22;27206;47.032;15.484;2022-08-16T02:17:03;19.80;1.00
41469;DHT22;27206;47.032;15.484;2022-08-16T02:19:31;19.80;1.00
41469;DHT22;27206;47.032;15.484;2022-08-16T02:21:58;19.80;1.00
41469;DHT22;27206;47.032;15.484;2022-08-16T02:24:24;19.80;1.00
41469;DHT22;27206;47.032;15.484;2022-08-16T02:26:50;19.80;1.00
41469;DHT22;27206;47.032;15.484;2022-08-16T02:29:17;19.90;1.00
41469;DHT22;27206;47.032;15.484;2022-08-16T02:31:44;19.80;1.00
41469;DHT22;27206;47.032;15.484;2022-08-16T02:34:09;19.90;1.00
41469;DHT22;27206;47.032;15.484;2022-08-16T02:36:36;19.90;1.00
41469;DHT22;27206;47.032;15.484;2022-08-16T02:39:03;19.90;1.00
41469;DHT22;27206;47.032;15.484;2022-08-16T02:41:29;19.90;1.00
41469;DHT22;27206;47.032;15.484;2022-08-16T02:43:55;20.00;1.00
41469;DHT22;27206;47.032;15.484;2022-08-16T02:46:21;19.80;1.00
41469;DHT22;27206;47.032;15.484;2022-08-16T02:48:47;19.90;1.00
41469;DHT22;27206;47.032;15.484;2022-08-16T02:51:13;19.90;1.00
41469;DHT22;27206;47.032;15.484;2022-08-16T02:53:44;20.00;1.00
41469;DHT22;27206;47.032;15.484;2022-08-16T02:56:15;20.10;1.00
41469;DHT22;27206;47.032;15.484;2022-08-16T02:58:43;20.10;1.00
41469;DHT22;27206;47.032;15.484;2022-08-16T03:01:10;20.20;1.00
41469;DHT22;27206;47.032;15.484;2022-08-16T03:03:35;20.40;1.00
41469;DHT22;27206;47.032;15.484;2022-08-16T03:06:03;20.50;1.00
41469;DHT22;27206;47.032;15.484;2022-08-16T03:08:28;20.50;1.00
41469;DHT22;27206;47.032;15.484;2022-08-16T03:10:54;20.50;1.00
41469;DHT22;27206;47.032;15.484;2022-08-16T03:13:20;20.50;1.00
41469;DHT22;27206;47.032;15.484;2022-08-16T03:15:46;20.50;1.00
41469;DHT22;27206;47.032;15.484;2022-08-16T03:18:13;20.40;1.00
41469;DHT22;27206;47.032;15.484;2022-08-16T03:20:39;20.50;1.00
41469;DHT22;27206;47.032;15.484;2022-08-16T03:23:06;20.50;1.00
41469;DHT22;27206;47.032;15.484;2022-08-16T03:25:34;20.40;1.00
41469;DHT22;27206;47.032;15.484;2022-08-16T03:27:59;20.40;1.00
41469;DHT22;27206;47.032;15.484;2022-08-16T03:30:29;20.40;1.00
41469;DHT22;27206;47.032;15.484;2022-08-16T03:32:55;20.40;1.00
41469;DHT22;27206;47.032;15.484;2022-08-16T03:35:24;20.40;1.00
41469;DHT22;27206;47.032;15.484;2022-08-16T03:37:54;20.10;1.00
41469;DHT22;27206;47.032;15.484;2022-08-16T03:40:21;19.80;1.00
41469;DHT22;27206;47.032;15.484;2022-08-16T03:42:47;19.50;1.00
41469;DHT22;27206;47.032;15.484;2022-08-16T03:45:14;19.20;1.00
41469;DHT22;27206;47.032;15.484;2022-08-16T03:47:40;19.20;1.00
41469;DHT22;27206;47.032;15.484;2022-08-16T03:50:07;19.00;1.00
41469;DHT22;27206;47.032;15.484;2022-08-16T03:52:33;18.90;1.00
41469;DHT22;27206;47.032;15.484;2022-08-16T03:55:04;18.90;1.00
41469;DHT22;27206;47.032;15.484;2022-08-16T03:57:30;18.80;1.00
41469;DHT22;27206;47.032;15.484;2022-08-16T03:59:56;18.70;1.00
41469;DHT22;27206;47.032;15.484;2022-08-16T04:02:21;18.50;1.00
41469;DHT22;27206;47.032;15.484;2022-08-16T04:04:48;18.50;1.00
41469;DHT22;27206;47.032;15.484;2022-08-16T04:07:14;18.40;1.00
41469;DHT22;27206;47.032;15.484;2022-08-16T04:09:40;18.40;1.00
41469;DHT22;27206;47.032;15.484;2022-08-16T04:12:08;18.30;1.00
41469;DHT22;27206;47.032;15.484;2022-08-16T04:14:34;18.30;1.00
41469;DHT22;27206;47.032;15.484;2022-08-16T04:17:00;18.30;1.00
41469;DHT22;27206;47.032;15.484;2022-08-16T04:19:26;18.30;1.00
41469;DHT22;27206;47.032;15.484;2022-08-16T04:21:52;18.40;1.00
41469;DHT22;27206;47.032;15.484;2022-08-16T04:24:18;18.60;1.00
41469;DHT22;27206;47.032;15.484;2022-08-16T04:26:44;18.60;1.00
41469;DHT22;27206;47.032;15.484;2022-08-16T04:29:10;18.70;1.00
41469;DHT22;27206;47.032;15.484;2022-08-16T04:31:35;18.60;1.00
41469;DHT22;27206;47.032;15.484;2022-08-16T04:34:01;18.60;1.00
41469;DHT22;27206;47.032;15.484;2022-08-16T04:36:27;18.70;1.00
41469;DHT22;27206;47.032;15.484;2022-08-16T04:38:53;18.80;1.00
41469;DHT22;27206;47.032;15.484;2022-08-16T04:41:20;18.90;1.00
41469;DHT22;27206;47.032;15.484;2022-08-16T04:43:47;19.00;1.00
41469;DHT22;27206;47.032;15.484;2022-08-16T04:46:13;19.00;1.00
41469;DHT22;27206;47.032;15.484;2022-08-16T04:48:40;19.00;1.00
41469;DHT22;27206;47.032;15.484;2022-08-16T04:51:06;19.10;1.00
41469;DHT22;27206;47.032;15.484;2022-08-16T04:53:32;19.10;1.00
41469;DHT22;27206;47.032;15.484;2022-08-16T04:55:58;19.20;1.00
41469;DHT22;27206;47.032;15.484;2022-08-16T04:58:26;19.20;1.00
41469;DHT22;27206;47.032;15.484;2022-08-16T05:00:52;19.30;1.00
41469;DHT22;27206;47.032;15.484;2022-08-16T05:03:18;19.40;1.00
41469;DHT22;27206;47.032;15.484;2022-08-16T05:05:44;19.50;1.00
41469;DHT22;27206;47.032;15.484;2022-08-16T05:08:10;19.50;1.00
41469;DHT22;27206;47.032;15.484;2022-08-16T05:10:36;19.50;1.00
41469;DHT22;27206;47.032;15.484;2022-08-16T05:13:03;19.60;1.00
41469;DHT22;27206;47.032;15.484;2022-08-16T05:15:29;19.70;1.00
41469;DHT22;27206;47.032;15.484;2022-08-16T05:17:55;19.80;1.00
41469;DHT22;27206;47.032;15.484;2022-08-16T05:20:21;19.80;1.00
41469;DHT22;27206;47.032;15.484;2022-08-16T05:22:47;19.90;1.00
41469;DHT22;27206;47.032;15.484;2022-08-16T05:25:14;19.90;1.00
41469;DHT22;27206;47.032;15.484;2022-08-16T05:27:41;20.10;1.00
41469;DHT22;27206;47.032;15.484;2022-08-16T05:30:09;20.40;1.00
41469;DHT22;27206;47.032;15.484;2022-08-16T05:32:38;20.60;1.00
41469;DHT22;27206;47.032;15.484;2022-08-16T05:35:05;20.60;1.00
41469;DHT22;27206;47.032;15.484;2022-08-16T05:37:35;20.60;1.00
41469;DHT22;27206;47.032;15.484;2022-08-16T05:40:02;20.70;1.00
41469;DHT22;27206;47.032;15.484;2022-08-16T05:42:28;20.70;1.00
41469;DHT22;27206;47.032;15.484;2022-08-16T05:44:54;20.80;1.00
41469;DHT22;27206;47.032;15.484;2022-08-16T05:47:20;20.80;1.00
41469;DHT22;27206;47.032;15.484;2022-08-16T05:49:45;20.90;1.00
41469;DHT22;27206;47.032;15.484;2022-08-16T05:52:11;21.10;1.00
41469;DHT22;27206;47.032;15.484;2022-08-16T05:54:37;21.30;1.00
41469;DHT22;27206;47.032;15.484;2022-08-16T05:57:04;21.40;1.00
41469;DHT22;27206;47.032;15.484;2022-08-16T05:59:30;21.60;1.00
41469;DHT22;27206;47.032;15.484;2022-08-16T06:01:55;21.70;1.00
41469;DHT22;27206;47.032;15.484;2022-08-16T06:04:21;21.80;1.00
41469;DHT22;27206;47.032;15.484;2022-08-16T06:06:47;21.90;1.00
41469;DHT22;27206;47.032;15.484;2022-08-16T06:09:13;22.00;1.00
41469;DHT22;27206;47.032;15.484;2022-08-16T06:11:40;22.20;1.00
41469;DHT22;27206;47.032;15.484;2022-08-16T06:14:06;22.20;1.00
41469;DHT22;27206;47.032;15.484;2022-08-16T06:16:32;22.30;1.00
41469;DHT22;27206;47.032;15.484;2022-08-16T06:18:57;22.40;1.00
41469;DHT22;27206;47.032;15.484;2022-08-16T06:21:23;22.40;1.00
41469;DHT22;27206;47.032;15.484;2022-08-16T06:23:49;22.50;1.00
41469;DHT22;27206;47.032;15.484;2022-08-16T06:26:15;22.70;1.00
41469;DHT22;27206;47.032;15.484;2022-08-16T06:28:41;22.80;1.00
41469;DHT22;27206;47.032;15.484;2022-08-16T06:31:09;22.80;1.00
41469;DHT22;27206;47.032;15.484;2022-08-16T06:33:35;22.80;1.00
41469;DHT22;27206;47.032;15.484;2022-08-16T06:36:01;22.90;1.00
41469;DHT22;27206;47.032;15.484;2022-08-16T06:38:27;22.90;1.00
41469;DHT22;27206;47.032;15.484;2022-08-16T06:40:53;23.10;1.00
41469;DHT22;27206;47.032;15.484;2022-08-16T06:43:19;23.10;1.00
41469;DHT22;27206;47.032;15.484;2022-08-16T06:45:46;23.20;1.00
41469;DHT22;27206;47.032;15.484;2022-08-16T06:48:12;23.20;1.00
41469;DHT22;27206;47.032;15.484;2022-08-16T06:50:38;23.30;1.00
41469;DHT22;27206;47.032;15.484;2022-08-16T06:53:04;23.30;1.00
41469;DHT22;27206;47.032;15.484;2022-08-16T06:55:31;23.30;1.00
41469;DHT22;27206;47.032;15.484;2022-08-16T06:57:59;23.30;1.00
41469;DHT22;27206;47.032;15.484;2022-08-16T07:00:25;23.30;1.00
41469;DHT22;27206;47.032;15.484;2022-08-16T07:02:51;23.40;1.00
41469;DHT22;27206;47.032;15.484;2022-08-16T07:05:20;23.50;1.00
41469;DHT22;27206;47.032;15.484;2022-08-16T07:07:47;23.50;1.00
41469;DHT22;27206;47.032;15.484;2022-08-16T07:10:14;23.60;1.00
41469;DHT22;27206;47.032;15.484;2022-08-16T07:12:41;23.60;1.00
41469;DHT22;27206;47.032;15.484;2022-08-16T07:15:07;23.70;1.00
41469;DHT22;27206;47.032;15.484;2022-08-16T07:17:34;23.70;1.00
41469;DHT22;27206;47.032;15.484;2022-08-16T07:20:01;23.80;1.00
41469;DHT22;27206;47.032;15.484;2022-08-16T07:22:26;23.80;1.00
41469;DHT22;27206;47.032;15.484;2022-08-16T07:24:52;23.90;1.00
41469;DHT22;27206;47.032;15.484;2022-08-16T07:27:18;24.10;1.00
41469;DHT22;27206;47.032;15.484;2022-08-16T07:29:44;24.10;1.00
41469;DHT22;27206;47.032;15.484;2022-08-16T07:32:10;24.10;1.00
41469;DHT22;27206;47.032;15.484;2022-08-16T07:34:36;24.20;1.00
41469;DHT22;27206;47.032;15.484;2022-08-16T07:37:09;24.20;1.00
41469;DHT22;27206;47.032;15.484;2022-08-16T07:39:36;24.40;1.00
41469;DHT22;27206;47.032;15.484;2022-08-16T07:42:02;24.40;1.00
41469;DHT22;27206;47.032;15.484;2022-08-16T07:44:28;24.40;1.00
41469;DHT22;27206;47.032;15.484;2022-08-16T07:46:54;24.40;1.00
41469;DHT22;27206;47.032;15.484;2022-08-16T07:49:20;24.40;1.00
41469;DHT22;27206;47.032;15.484;2022-08-16T07:51:46;24.40;1.00
41469;DHT22;27206;47.032;15.484;2022-08-16T07:54:11;24.40;1.00
41469;DHT22;27206;47.032;15.484;2022-08-16T07:56:37;24.40;1.00
41469;DHT22;27206;47.032;15.484;2022-08-16T07:59:04;24.50;1.00
41469;DHT22;27206;47.032;15.484;2022-08-16T08:01:30;24.40;1.00
41469;DHT22;27206;47.032;15.484;2022-08-16T08:03:56;24.40;1.00
41469;DHT22;27206;47.032;15.484;2022-08-16T08:06:24;24.40;1.00
41469;DHT22;27206;47.032;15.484;2022-08-16T08:08:52;24.50;1.00
41469;DHT22;27206;47.032;15.484;2022-08-16T08:11:17;24.60;1.00
41469;DHT22;27206;47.032;15.484;2022-08-16T08:13:43;24.70;1.00
41469;DHT22;27206;47.032;15.484;2022-08-16T08:16:09;24.70;1.00
41469;DHT22;27206;47.032;15.484;2022-08-16T08:18:35;24.70;1.00
41469;DHT22;27206;47.032;15.484;2022-08-16T08:21:01;24.90;1.00
41469;DHT22;27206;47.032;15.484;2022-08-16T08:23:27;25.10;1.00
41469;DHT22;27206;47.032;15.484;2022-08-16T08:25:52;25.30;1.00
41469;DHT22;27206;47.032;15.484;2022-08-16T08:28:18;25.40;1.00
41469;DHT22;27206;47.032;15.484;2022-08-16T08:30:45;25.50;1.00
41469;DHT22;27206;47.032;15.484;2022-08-16T08:33:11;25.70;1.00
41469;DHT22;27206;47.032;15.484;2022-08-16T08:35:37;25.70;99.90
41469;DHT22;27206;47.032;15.484;2022-08-16T08:38:04;25.70;1.00
41469;DHT22;27206;47.032;15.484;2022-08-16T08:40:32;25.90;1.00
41469;DHT22;27206;47.032;15.484;2022-08-16T08:43:00;26.10;1.00
41469;DHT22;27206;47.032;15.484;2022-08-16T08:45:27;26.00;99.90
41469;DHT22;27206;47.032;15.484;2022-08-16T08:47:53;26.20;99.90
41469;DHT22;27206;47.032;15.484;2022-08-16T08:50:22;26.40;99.90
41469;DHT22;27206;47.032;15.484;2022-08-16T08:52:48;26.30;1.00
41469;DHT22;27206;47.032;15.484;2022-08-16T08:55:17;26.40;99.90
41469;DHT22;27206;47.032;15.484;2022-08-16T08:57:45;26.50;99.90
41469;DHT22;27206;47.032;15.484;2022-08-16T09:00:13;26.60;99.90
41469;DHT22;27206;47.032;15.484;2022-08-16T09:02:42;26.50;99.90
41469;DHT22;27206;47.032;15.484;2022-08-16T09:05:09;26.40;99.90
41469;DHT22;27206;47.032;15.484;2022-08-16T09:07:34;26.50;99.90
41469;DHT22;27206;47.032;15.484;2022-08-16T09:10:02;26.70;99.90
41469;DHT22;27206;47.032;15.484;2022-08-16T09:12:28;27.10;99.90
41469;DHT22;27206;47.032;15.484;2022-08-16T09:14:54;27.10;99.90
41469;DHT22;27206;47.032;15.484;2022-08-16T09:17:19;27.30;99.90
41469;DHT22;27206;47.032;15.484;2022-08-16T09:19:45;27.50;99.90
41469;DHT22;27206;47.032;15.484;2022-08-16T09:22:11;27.70;99.90
41469;DHT22;27206;47.032;15.484;2022-08-16T09:24:37;27.40;99.90
41469;DHT22;27206;47.032;15.484;2022-08-16T09:27:03;27.50;99.90
41469;DHT22;27206;47.032;15.484;2022-08-16T09:29:28;27.60;99.90
41469;DHT22;27206;47.032;15.484;2022-08-16T09:31:55;27.60;99.90
41469;DHT22;27206;47.032;15.484;2022-08-16T09:34:22;27.90;99.90
41469;DHT22;27206;47.032;15.484;2022-08-16T09:36:47;28.00;99.90
41469;DHT22;27206;47.032;15.484;2022-08-16T09:39:14;28.30;99.90
41469;DHT22;27206;47.032;15.484;2022-08-16T09:41:39;28.40;99.90
41469;DHT22;27206;47.032;15.484;2022-08-16T09:44:05;28.00;99.90
41469;DHT22;27206;47.032;15.484;2022-08-16T09:46:32;27.80;99.90
41469;DHT22;27206;47.032;15.484;2022-08-16T09:48:58;27.70;99.90
41469;DHT22;27206;47.032;15.484;2022-08-16T09:51:24;27.70;99.90
41469;DHT22;27206;47.032;15.484;2022-08-16T09:53:53;27.70;99.90
41469;DHT22;27206;47.032;15.484;2022-08-16T09:56:28;27.40;99.90
41469;DHT22;27206;47.032;15.484;2022-08-16T09:58:56;27.20;99.90
41469;DHT22;27206;47.032;15.484;2022-08-16T10:01:22;27.20;99.90
41469;DHT22;27206;47.032;15.484;2022-08-16T10:03:49;27.70;99.90
41469;DHT22;27206;47.032;15.484;2022-08-16T10:06:16;28.10;99.90
41469;DHT22;27206;47.032;15.484;2022-08-16T10:08:42;28.40;99.90
41469;DHT22;27206;47.032;15.484;2022-08-16T10:11:08;28.60;99.90
41469;DHT22;27206;47.032;15.484;2022-08-16T10:13:52;28.40;99.90
41469;DHT22;27206;47.032;15.484;2022-08-16T10:16:18;28.80;99.90
41469;DHT22;27206;47.032;15.484;2022-08-16T10:18:44;28.90;99.90
41469;DHT22;27206;47.032;15.484;2022-08-16T10:21:09;28.80;99.90
41469;DHT22;27206;47.032;15.484;2022-08-16T10:23:35;28.90;99.90
41469;DHT22;27206;47.032;15.484;2022-08-16T10:26:01;28.70;99.90
41469;DHT22;27206;47.032;15.484;2022-08-16T10:28:27;28.60;99.90
41469;DHT22;27206;47.032;15.484;2022-08-16T10:30:54;28.70;99.90
41469;DHT22;27206;47.032;15.484;2022-08-16T10:33:19;29.10;99.90
41469;DHT22;27206;47.032;15.484;2022-08-16T10:35:45;29.30;99.90
41469;DHT22;27206;47.032;15.484;2022-08-16T10:38:12;29.70;99.90
41469;DHT22;27206;47.032;15.484;2022-08-16T10:40:41;29.70;99.90
41469;DHT22;27206;47.032;15.484;2022-08-16T10:43:07;29.90;99.90
41469;DHT22;27206;47.032;15.484;2022-08-16T10:45:33;29.80;99.90
41469;DHT22;27206;47.032;15.484;2022-08-16T10:47:59;29.90;99.90
41469;DHT22;27206;47.032;15.484;2022-08-16T10:50:26;30.00;99.90
41469;DHT22;27206;47.032;15.484;2022-08-16T10:52:53;30.30;99.90
41469;DHT22;27206;47.032;15.484;2022-08-16T10:55:20;30.20;99.90
41469;DHT22;27206;47.032;15.484;2022-08-16T10:57:46;30.20;99.90
41469;DHT22;27206;47.032;15.484;2022-08-16T11:00:16;30.50;99.90
41469;DHT22;27206;47.032;15.484;2022-08-16T11:02:42;30.40;99.90
41469;DHT22;27206;47.032;15.484;2022-08-16T11:05:12;30.40;99.90
41469;DHT22;27206;47.032;15.484;2022-08-16T11:07:42;30.30;99.90
41469;DHT22;27206;47.032;15.484;2022-08-16T11:10:09;30.70;99.90
41469;DHT22;27206;47.032;15.484;2022-08-16T11:12:34;31.00;99.90
41469;DHT22;27206;47.032;15.484;2022-08-16T11:15:00;30.70;99.90
41469;DHT22;27206;47.032;15.484;2022-08-16T11:17:26;30.80;99.90
41469;DHT22;27206;47.032;15.484;2022-08-16T11:19:52;31.00;99.90
41469;DHT22;27206;47.032;15.484;2022-08-16T11:22:18;31.10;99.90
41469;DHT22;27206;47.032;15.484;2022-08-16T11:24:45;31.00;99.90
41469;DHT22;27206;47.032;15.484;2022-08-16T11:27:16;31.40;99.90
41469;DHT22;27206;47.032;15.484;2022-08-16T11:29:42;31.70;99.90
41469;DHT22;27206;47.032;15.484;2022-08-16T11:32:08;32.20;99.90
41469;DHT22;27206;47.032;15.484;2022-08-16T11:34:33;32.30;99.90
41469;DHT22;27206;47.032;15.484;2022-08-16T11:36:59;32.40;99.90
41469;DHT22;27206;47.032;15.484;2022-08-16T11:39:27;32.60;99.90
41469;DHT22;27206;47.032;15.484;2022-08-16T11:41:53;33.20;99.90
41469;DHT22;27206;47.032;15.484;2022-08-16T11:44:19;33.40;99.90
41469;DHT22;27206;47.032;15.484;2022-08-16T11:46:44;33.60;99.90
41469;DHT22;27206;47.032;15.484;2022-08-16T11:49:10;34.30;99.90
41469;DHT22;27206;47.032;15.484;2022-08-16T11:51:35;34.10;99.90
41469;DHT22;27206;47.032;15.484;2022-08-16T11:54:01;34.20;99.90
41469;DHT22;27206;47.032;15.484;2022-08-16T11:56:27;34.50;99.90
41469;DHT22;27206;47.032;15.484;2022-08-16T11:58:52;34.10;99.90
41469;DHT22;27206;47.032;15.484;2022-08-16T12:01:18;34.50;99.90
41469;DHT22;27206;47.032;15.484;2022-08-16T12:03:44;34.20;99.90
41469;DHT22;27206;47.032;15.484;2022-08-16T12:06:13;34.40;99.90
41469;DHT22;27206;47.032;15.484;2022-08-16T12:08:42;34.40;99.90
41469;DHT22;27206;47.032;15.484;2022-08-16T12:11:09;33.90;99.90
41469;DHT22;27206;47.032;15.484;2022-08-16T12:13:35;33.40;99.90
41469;DHT22;27206;47.032;15.484;2022-08-16T12:16:01;33.30;99.90
41469;DHT22;27206;47.032;15.484;2022-08-16T12:18:28;33.20;99.90
41469;DHT22;27206;47.032;15.484;2022-08-16T12:20:54;33.50;99.90
41469;DHT22;27206;47.032;15.484;2022-08-16T12:23:19;33.60;99.90
41469;DHT22;27206;47.032;15.484;2022-08-16T12:25:45;33.50;99.90
41469;DHT22;27206;47.032;15.484;2022-08-16T12:28:12;33.40;99.90
41469;DHT22;27206;47.032;15.484;2022-08-16T12:30:41;33.50;99.90
41469;DHT22;27206;47.032;15.484;2022-08-16T12:33:09;33.40;99.90
41469;DHT22;27206;47.032;15.484;2022-08-16T12:35:37;34.20;99.90
41469;DHT22;27206;47.032;15.484;2022-08-16T12:38:04;33.70;99.90
41469;DHT22;27206;47.032;15.484;2022-08-16T12:40:33;34.10;99.90
41469;DHT22;27206;47.032;15.484;2022-08-16T12:43:00;33.80;99.90
41469;DHT22;27206;47.032;15.484;2022-08-16T12:45:41;33.80;99.90
41469;DHT22;27206;47.032;15.484;2022-08-16T12:48:12;34.80;99.90
41469;DHT22;27206;47.032;15.484;2022-08-16T12:50:56;34.80;99.90
41469;DHT22;27206;47.032;15.484;2022-08-16T12:53:22;35.20;99.90
41469;DHT22;27206;47.032;15.484;2022-08-16T12:55:49;35.60;99.90
41469;DHT22;27206;47.032;15.484;2022-08-16T12:58:16;36.10;99.90
41469;DHT22;27206;47.032;15.484;2022-08-16T13:00:42;36.20;99.90
41469;DHT22;27206;47.032;15.484;2022-08-16T13:03:08;36.00;99.90
41469;DHT22;27206;47.032;15.484;2022-08-16T13:05:35;36.00;99.90
41469;DHT22;27206;47.032;15.484;2022-08-16T13:08:06;36.10;99.90
41469;DHT22;27206;47.032;15.484;2022-08-16T13:10:32;36.30;99.90
41469;DHT22;27206;47.032;15.484;2022-08-16T13:12:59;36.90;99.90
41469;DHT22;27206;47.032;15.484;2022-08-16T13:15:27;36.80;99.90
41469;DHT22;27206;47.032;15.484;2022-08-16T13:17:53;37.20;99.90
41469;DHT22;27206;47.032;15.484;2022-08-16T13:20:23;36.60;99.90
41469;DHT22;27206;47.032;15.484;2022-08-16T13:22:58;36.80;99.90
41469;DHT22;27206;47.032;15.484;2022-08-16T13:25:25;36.80;99.90
41469;DHT22;27206;47.032;15.484;2022-08-16T13:27:53;36.50;99.90
41469;DHT22;27206;47.032;15.484;2022-08-16T13:30:19;36.00;99.90
41469;DHT22;27206;47.032;15.484;2022-08-16T13:32:45;35.90;99.90
41469;DHT22;27206;47.032;15.484;2022-08-16T13:35:11;34.70;99.90
41469;DHT22;27206;47.032;15.484;2022-08-16T13:37:37;35.10;99.90
41469;DHT22;27206;47.032;15.484;2022-08-16T13:40:04;35.70;99.90
41469;DHT22;27206;47.032;15.484;2022-08-16T13:42:30;35.20;99.90
41469;DHT22;27206;47.032;15.484;2022-08-16T13:44:56;34.60;99.90
41469;DHT22;27206;47.032;15.484;2022-08-16T13:47:23;34.90;99.90
41469;DHT22;27206;47.032;15.484;2022-08-16T13:49:49;35.20;99.90
41469;DHT22;27206;47.032;15.484;2022-08-16T13:52:16;35.40;99.90
41469;DHT22;27206;47.032;15.484;2022-08-16T13:54:42;35.80;99.90
41469;DHT22;27206;47.032;15.484;2022-08-16T13:57:08;35.40;99.90
41469;DHT22;27206;47.032;15.484;2022-08-16T13:59:33;35.10;99.90
41469;DHT22;27206;47.032;15.484;2022-08-16T14:01:59;34.10;99.90
41469;DHT22;27206;47.032;15.484;2022-08-16T14:04:32;33.80;99.90
41469;DHT22;27206;47.032;15.484;2022-08-16T14:07:00;34.50;99.90
41469;DHT22;27206;47.032;15.484;2022-08-16T14:09:27;34.80;99.90
41469;DHT22;27206;47.032;15.484;2022-08-16T14:11:53;35.10;99.90
41469;DHT22;27206;47.032;15.484;2022-08-16T14:14:19;35.50;99.90
41469;DHT22;27206;47.032;15.484;2022-08-16T14:16:45;34.90;99.90
41469;DHT22;27206;47.032;15.484;2022-08-16T14:19:11;34.60;99.90
41469;DHT22;27206;47.032;15.484;2022-08-16T14:21:45;34.70;99.90
41469;DHT22;27206;47.032;15.484;2022-08-16T14:24:12;34.10;99.90
41469;DHT22;27206;47.032;15.484;2022-08-16T14:26:40;33.40;99.90
41469;DHT22;27206;47.032;15.484;2022-08-16T14:29:06;33.20;99.90
41469;DHT22;27206;47.032;15.484;2022-08-16T14:31:31;32.70;99.90
41469;DHT22;27206;47.032;15.484;2022-08-16T14:33:57;32.60;99.90
41469;DHT22;27206;47.032;15.484;2022-08-16T14:36:23;32.40;99.90
41469;DHT22;27206;47.032;15.484;2022-08-16T14:38:48;32.30;99.90
41469;DHT22;27206;47.032;15.484;2022-08-16T14:41:14;32.00;99.90
41469;DHT22;27206;47.032;15.484;2022-08-16T14:43:40;31.80;99.90
41469;DHT22;27206;47.032;15.484;2022-08-16T14:46:05;31.50;99.90
41469;DHT22;27206;47.032;15.484;2022-08-16T14:48:31;31.50;99.90
41469;DHT22;27206;47.032;15.484;2022-08-16T14:50:57;31.50;99.90
41469;DHT22;27206;47.032;15.484;2022-08-16T14:53:24;32.30;99.90
41469;DHT22;27206;47.032;15.484;2022-08-16T14:55:50;32.20;99.90
41469;DHT22;27206;47.032;15.484;2022-08-16T14:58:16;32.50;99.90
41469;DHT22;27206;47.032;15.484;2022-08-16T15:00:43;32.20;99.90
41469;DHT22;27206;47.032;15.484;2022-08-16T15:03:09;32.50;99.90
41469;DHT22;27206;47.032;15.484;2022-08-16T15:05:39;32.60;99.90
41469;DHT22;27206;47.032;15.484;2022-08-16T15:08:06;32.60;99.90
41469;DHT22;27206;47.032;15.484;2022-08-16T15:10:32;33.10;99.90
41469;DHT22;27206;47.032;15.484;2022-08-16T15:12:57;33.40;99.90
41469;DHT22;27206;47.032;15.484;2022-08-16T15:15:27;33.60;99.90
41469;DHT22;27206;47.032;15.484;2022-08-16T15:17:53;33.30;99.90
41469;DHT22;27206;47.032;15.484;2022-08-16T15:20:20;33.30;99.90
41469;DHT22;27206;47.032;15.484;2022-08-16T15:22:48;33.40;99.90